createdAt,value
2018-06-05T00:00:31.554Z,39.35
2018-06-05T00:02:59.974Z,37.95
2018-06-05T00:05:28.415Z,39.65
2018-06-05T00:07:56.822Z,39.33
2018-06-05T00:10:25.228Z,40.33
2018-06-05T00:12:53.633Z,42.85
2018-06-05T00:15:22.034Z,43.50
2018-06-05T00:17:50.448Z,43.70
2018-06-05T00:20:18.885Z,42.75
2018-06-05T00:22:47.303Z,43.25
2018-06-05T00:25:15.721Z,43.50
2018-06-05T00:27:44.147Z,39.42
2018-06-05T00:30:12.555Z,39.98
2018-06-05T00:32:40.958Z,40.15
2018-06-05T00:35:09.358Z,39.55
2018-06-05T00:37:37.778Z,41.08
2018-06-05T00:40:05.903Z,39.27
2018-06-05T00:42:34.309Z,42.35
2018-06-05T00:45:02.714Z,42.30
2018-06-05T00:47:31.139Z,41.48
2018-06-05T00:49:59.554Z,41.28
2018-06-05T00:52:27.962Z,43.42
2018-06-05T00:54:56.358Z,45.60
2018-06-05T00:57:24.771Z,46.90
2018-06-05T00:59:53.178Z,46.98
2018-06-05T01:02:21.578Z,46.63
2018-06-05T01:04:50.021Z,46.50
2018-06-05T01:07:18.431Z,46.68
2018-06-05T01:09:47.194Z,46.55
2018-06-05T01:12:15.607Z,44.40
2018-06-05T01:14:44.044Z,45.73
2018-06-05T01:17:12.150Z,43.98
2018-06-05T01:19:40.553Z,44.23
2018-06-05T01:22:08.963Z,43.13
2018-06-05T01:24:37.367Z,44.23
2018-06-05T01:27:05.839Z,44.18
2018-06-05T01:29:34.308Z,44.85
2018-06-05T01:32:02.739Z,42.85
2018-06-05T01:34:31.134Z,44.42
2018-06-05T01:36:59.548Z,44.25
2018-06-05T01:39:27.967Z,44.05
2018-06-05T01:41:56.379Z,45.85
2018-06-05T01:44:24.821Z,45.30
2018-06-05T01:46:53.242Z,47.75
2018-06-05T01:49:21.688Z,46.35
2018-06-05T01:51:50.104Z,45.00
2018-06-05T01:54:18.506Z,45.25
2018-06-05T01:56:46.919Z,44.18
2018-06-05T01:59:15.322Z,44.83
2018-06-05T02:01:43.710Z,45.90
2018-06-05T02:04:12.186Z,44.85
2018-06-05T02:06:40.615Z,45.92
2018-06-05T02:09:09.130Z,42.03
2018-06-05T02:11:37.547Z,42.45
2018-06-05T02:14:05.966Z,41.15
2018-06-05T02:16:34.367Z,40.05
2018-06-05T02:19:02.778Z,42.03
2018-06-05T02:21:31.187Z,40.03
2018-06-05T02:23:59.603Z,37.15
2018-06-05T02:26:28.034Z,37.17
2018-06-05T02:28:56.460Z,36.73
2018-06-05T02:31:24.906Z,35.83
2018-06-05T02:33:53.021Z,35.13
2018-06-05T02:36:21.411Z,33.55
2018-06-05T02:38:49.808Z,33.42
2018-06-05T02:41:18.221Z,34.58
2018-06-05T02:43:46.670Z,34.67
2018-06-05T02:46:15.087Z,34.40
2018-06-05T02:48:43.544Z,35.98
2018-06-05T02:51:11.969Z,36.42
2018-06-05T02:53:40.383Z,39.05
2018-06-05T02:56:08.783Z,37.20
2018-06-05T02:58:37.194Z,39.50
2018-06-05T03:01:05.598Z,40.95
2018-06-05T03:03:34.024Z,38.65
2018-06-05T03:06:02.450Z,40.98
2018-06-05T03:08:30.886Z,41.88
2018-06-05T03:10:59.302Z,46.23
2018-06-05T03:13:27.739Z,42.80
2018-06-05T03:15:56.163Z,43.30
2018-06-05T03:18:24.564Z,43.58
2018-06-05T03:20:53.010Z,41.18
2018-06-05T03:23:21.106Z,42.95
2018-06-05T03:25:49.498Z,40.73
2018-06-05T03:28:17.906Z,40.70
2018-06-05T03:30:46.323Z,36.03
2018-06-05T03:33:14.720Z,35.83
2018-06-05T03:35:43.127Z,33.00
2018-06-05T03:38:11.547Z,31.80
2018-06-05T03:40:39.945Z,29.77
2018-06-05T03:43:08.348Z,29.52
2018-06-05T03:45:36.758Z,29.20
2018-06-05T03:48:05.162Z,29.32
2018-06-05T03:50:33.567Z,29.27
2018-06-05T03:53:01.989Z,27.25
2018-06-05T03:55:30.390Z,27.35
2018-06-05T03:57:58.793Z,27.15
2018-06-05T04:00:27.214Z,27.55
2018-06-05T04:02:55.626Z,28.05
2018-06-05T04:05:24.065Z,28.15
2018-06-05T04:07:52.491Z,28.30
2018-06-05T04:10:20.905Z,28.12
2018-06-05T04:12:49.370Z,28.38
2018-06-05T04:15:17.786Z,28.27
2018-06-05T04:17:46.187Z,28.55
2018-06-05T04:20:14.601Z,27.07
2018-06-05T04:22:43.025Z,28.32
2018-06-05T04:25:11.471Z,27.95
2018-06-05T04:27:39.906Z,29.80
2018-06-05T04:30:08.326Z,30.27
2018-06-05T04:32:36.744Z,30.77
2018-06-05T04:35:05.159Z,29.77
2018-06-05T04:37:33.562Z,28.45
2018-06-05T04:40:02.007Z,27.80
2018-06-05T04:42:30.421Z,27.75
2018-06-05T04:44:58.848Z,30.37
2018-06-05T04:47:27.276Z,27.87
2018-06-05T04:49:55.682Z,27.73
2018-06-05T04:52:24.102Z,28.73
2018-06-05T04:54:52.506Z,27.45
2018-06-05T04:57:20.930Z,26.20
2018-06-05T04:59:49.437Z,26.12
2018-06-05T05:02:17.797Z,27.30
2018-06-05T05:04:46.274Z,28.40
2018-06-05T05:07:14.696Z,28.25
2018-06-05T05:09:43.197Z,30.20
2018-06-05T05:12:11.605Z,32.05
2018-06-05T05:14:40.103Z,30.92
2018-06-05T05:17:08.526Z,36.98
2018-06-05T05:19:36.930Z,37.00
2018-06-05T05:22:05.372Z,39.92
2018-06-05T05:24:33.790Z,38.53
2018-06-05T05:27:02.200Z,38.23
2018-06-05T05:29:30.617Z,36.40
2018-06-05T05:31:59.038Z,36.93
2018-06-05T05:34:27.441Z,35.95
2018-06-05T05:36:55.835Z,35.75
2018-06-05T05:39:24.241Z,36.08
2018-06-05T05:41:52.679Z,33.98
2018-06-05T05:44:21.076Z,35.05
2018-06-05T05:46:49.492Z,34.70
2018-06-05T05:49:17.882Z,33.95
2018-06-05T05:51:46.298Z,35.17
2018-06-05T05:54:14.695Z,34.63
2018-06-05T05:56:43.103Z,31.85
2018-06-05T05:59:11.589Z,30.37
2018-06-05T06:01:39.999Z,32.73
2018-06-05T06:04:08.418Z,32.10
2018-06-05T06:06:36.881Z,33.53
2018-06-05T06:09:07.928Z,33.25
2018-06-05T06:11:36.345Z,32.80
2018-06-05T06:14:04.779Z,34.80
2018-06-05T06:16:33.207Z,34.65
2018-06-05T06:19:01.302Z,33.40
2018-06-05T06:21:29.734Z,33.38
2018-06-05T06:23:58.138Z,34.18
2018-06-05T06:26:26.252Z,35.03
2018-06-05T06:28:54.644Z,34.00
2018-06-05T06:31:23.087Z,33.80
2018-06-05T06:33:51.470Z,35.58
2018-06-05T06:36:19.903Z,36.70
2018-06-05T06:38:48.310Z,34.85
2018-06-05T06:41:16.718Z,33.80
2018-06-05T06:43:45.147Z,33.67
2018-06-05T06:46:13.560Z,33.35
2018-06-05T06:48:42.043Z,33.45
2018-06-05T06:51:10.394Z,32.48
2018-06-05T06:53:38.804Z,34.33
2018-06-05T06:56:07.245Z,34.10
2018-06-05T06:58:35.655Z,34.80
2018-06-05T07:01:04.074Z,34.45
2018-06-05T07:03:32.506Z,35.88
2018-06-05T07:06:00.939Z,36.55
2018-06-05T07:08:29.351Z,36.70
2018-06-05T07:10:57.790Z,36.60
2018-06-05T07:13:26.206Z,35.17
2018-06-05T07:15:54.639Z,36.10
2018-06-05T07:18:23.067Z,38.10
2018-06-05T07:20:51.506Z,37.53
2018-06-05T07:23:19.921Z,38.10
2018-06-05T07:25:48.330Z,38.85
2018-06-05T07:28:16.734Z,37.42
2018-06-05T07:30:45.158Z,33.70
2018-06-05T07:33:13.577Z,36.13
2018-06-05T07:35:41.995Z,34.78
2018-06-05T07:38:10.442Z,35.52
2018-06-05T07:40:38.849Z,36.17
2018-06-05T07:43:07.270Z,36.73
2018-06-05T07:45:35.699Z,37.10
2018-06-05T07:48:05.026Z,38.00
2018-06-05T07:50:33.438Z,39.15
2018-06-05T07:53:01.842Z,34.73
2018-06-05T07:55:30.263Z,32.75
2018-06-05T07:57:58.690Z,34.25
2018-06-05T08:00:27.099Z,33.53
2018-06-05T08:02:55.522Z,33.25
2018-06-05T08:05:23.934Z,31.85
2018-06-05T08:07:52.350Z,34.40
2018-06-05T08:10:20.766Z,32.80
2018-06-05T08:12:49.187Z,31.10
2018-06-05T08:15:17.585Z,27.58
2018-06-05T08:17:46.006Z,30.37
2018-06-05T08:20:14.414Z,29.98
2018-06-05T08:22:52.461Z,27.90
2018-06-05T08:25:20.883Z,25.02
2018-06-05T08:27:49.290Z,24.60
2018-06-05T08:30:18.228Z,23.75
2018-06-05T08:32:46.650Z,25.48
2018-06-05T08:35:15.075Z,24.37
2018-06-05T08:37:43.554Z,25.45
2018-06-05T08:40:11.927Z,26.87
2018-06-05T08:42:40.403Z,26.17
2018-06-05T08:45:08.856Z,25.85
2018-06-05T08:47:37.266Z,24.98
2018-06-05T08:50:05.707Z,25.08
2018-06-05T08:52:34.141Z,25.02
2018-06-05T08:55:02.572Z,25.90
2018-06-05T08:57:30.992Z,24.25
2018-06-05T08:59:59.474Z,22.82
2018-06-05T09:02:27.849Z,23.57
2018-06-05T09:04:56.263Z,22.77
2018-06-05T09:07:24.675Z,22.98
2018-06-05T09:09:53.074Z,23.90
2018-06-05T09:12:21.487Z,23.32
2018-06-05T09:14:49.943Z,23.52
2018-06-05T09:17:18.358Z,23.90
2018-06-05T09:19:46.783Z,23.50
2018-06-05T09:22:15.265Z,25.10
2018-06-05T09:24:43.699Z,24.50
2018-06-05T09:27:13.970Z,23.52
2018-06-05T09:29:42.440Z,25.75
2018-06-05T09:32:10.887Z,25.12
2018-06-05T09:34:39.335Z,24.30
2018-06-05T09:37:07.803Z,23.67
2018-06-05T09:39:36.224Z,23.32
2018-06-05T09:42:04.640Z,23.55
2018-06-05T09:44:33.098Z,23.27
2018-06-05T09:47:01.550Z,22.75
2018-06-05T09:49:29.955Z,23.47
2018-06-05T09:51:58.441Z,22.75
2018-06-05T09:54:26.869Z,21.80
2018-06-05T09:56:55.300Z,21.82
2018-06-05T09:59:23.745Z,22.67
2018-06-05T10:01:52.203Z,23.20
2018-06-05T10:04:20.620Z,21.82
2018-06-05T10:06:49.045Z,22.05
2018-06-05T10:09:17.452Z,21.87
2018-06-05T10:11:48.495Z,21.37
2018-06-05T10:14:16.916Z,21.85
2018-06-05T10:16:45.375Z,21.50
2018-06-05T10:19:13.817Z,20.97
2018-06-05T10:21:42.229Z,20.77
2018-06-05T10:24:10.656Z,19.37
2018-06-05T10:26:39.078Z,20.48
2018-06-05T10:29:08.582Z,21.82
2018-06-05T10:31:37.943Z,20.70
2018-06-05T10:34:06.363Z,21.00
2018-06-05T10:36:34.788Z,21.02
2018-06-05T10:39:03.295Z,20.55
2018-06-05T10:41:31.720Z,21.12
2018-06-05T10:44:00.130Z,22.52
2018-06-05T10:46:28.528Z,21.12
2018-06-05T10:48:56.641Z,21.70
2018-06-05T10:51:25.048Z,21.05
2018-06-05T10:53:53.475Z,21.65
2018-06-05T10:56:21.908Z,20.80
2018-06-05T10:58:50.345Z,21.23
2018-06-05T11:01:19.541Z,20.37
2018-06-05T11:03:47.986Z,19.98
2018-06-05T11:06:16.409Z,21.55
2018-06-05T11:08:44.882Z,21.45
2018-06-05T11:11:13.318Z,21.85
2018-06-05T11:13:41.730Z,22.10
2018-06-05T11:16:11.030Z,21.42
2018-06-05T11:18:39.476Z,21.70
2018-06-05T11:21:07.899Z,22.25
2018-06-05T11:23:36.336Z,22.13
2018-06-05T11:26:04.778Z,22.05
2018-06-05T11:28:33.195Z,22.02
2018-06-05T11:31:01.607Z,23.30
2018-06-05T11:33:30.027Z,22.05
2018-06-05T11:35:58.486Z,22.80
2018-06-05T11:38:26.912Z,22.00
2018-06-05T11:40:55.334Z,23.62
2018-06-05T11:43:23.757Z,23.83
2018-06-05T11:45:52.170Z,23.80
2018-06-05T11:48:20.588Z,24.20
2018-06-05T11:50:49.023Z,26.48
2018-06-05T11:53:17.452Z,26.62
2018-06-05T11:55:45.935Z,27.55
2018-06-05T11:58:14.916Z,26.40
2018-06-05T12:00:43.511Z,26.93
2018-06-05T12:03:11.906Z,25.32
2018-06-05T12:05:41.499Z,24.35
2018-06-05T12:08:09.623Z,25.40
2018-06-05T12:10:38.116Z,26.15
2018-06-05T12:13:06.875Z,25.08
2018-06-05T12:15:35.275Z,24.12
2018-06-05T12:18:03.694Z,25.35
2018-06-05T12:20:32.103Z,25.57
2018-06-05T12:23:00.572Z,25.92
2018-06-05T12:25:28.987Z,26.27
2018-06-05T12:27:57.446Z,25.97
2018-06-05T12:30:25.869Z,26.05
2018-06-05T12:32:54.301Z,25.15
2018-06-05T12:35:23.048Z,25.80
2018-06-05T12:37:51.459Z,25.30
2018-06-05T12:40:19.914Z,26.52
2018-06-05T12:42:48.322Z,25.77
2018-06-05T12:45:16.755Z,25.00
2018-06-05T12:47:45.170Z,24.47
2018-06-05T12:50:13.595Z,25.95
2018-06-05T12:52:42.011Z,25.32
2018-06-05T12:55:10.426Z,23.60
2018-06-05T12:57:38.842Z,25.48
2018-06-05T13:00:07.269Z,24.07
2018-06-05T13:02:35.671Z,23.62
2018-06-05T13:05:04.654Z,23.40
2018-06-05T13:07:33.190Z,24.47
2018-06-05T13:10:01.608Z,23.67
2018-06-05T13:12:30.040Z,24.15
2018-06-05T13:14:58.454Z,24.00
2018-06-05T13:17:27.553Z,25.00
2018-06-05T13:19:55.955Z,24.90
2018-06-05T13:22:24.373Z,25.90
2018-06-05T13:24:52.784Z,26.27
2018-06-05T13:27:21.193Z,25.95
2018-06-05T13:29:49.704Z,26.82
2018-06-05T13:32:18.158Z,25.68
2018-06-05T13:34:46.609Z,25.08
2018-06-05T13:37:15.035Z,25.48
2018-06-05T13:39:43.475Z,24.37
2018-06-05T13:42:11.889Z,26.20
2018-06-05T13:44:40.305Z,26.17
2018-06-05T13:47:08.727Z,26.25
2018-06-05T13:49:37.158Z,24.47
2018-06-05T13:52:05.574Z,25.65
2018-06-05T13:54:33.990Z,25.17
2018-06-05T13:57:02.405Z,24.10
2018-06-05T13:59:30.816Z,25.57
2018-06-05T14:01:59.235Z,26.30
2018-06-05T14:04:27.638Z,24.95
2018-06-05T14:06:55.761Z,23.98
2018-06-05T14:09:24.188Z,23.55
2018-06-05T14:11:52.627Z,23.05
2018-06-05T14:14:21.046Z,24.27
2018-06-05T14:16:49.450Z,24.25
2018-06-05T14:19:17.874Z,24.25
2018-06-05T14:21:46.327Z,24.05
2018-06-05T14:24:14.756Z,24.87
2018-06-05T14:26:43.171Z,25.43
2018-06-05T14:29:11.619Z,26.15
2018-06-05T14:31:40.046Z,26.60
2018-06-05T14:34:08.474Z,26.02
2018-06-05T14:36:36.878Z,25.62
2018-06-05T14:39:07.735Z,26.33
2018-06-05T14:41:36.234Z,24.92
2018-06-05T14:44:04.666Z,26.57
2018-06-05T14:46:33.080Z,25.80
2018-06-05T14:49:01.518Z,26.10
2018-06-05T14:51:29.933Z,25.72
2018-06-05T14:53:58.347Z,26.05
2018-06-05T14:56:27.184Z,23.85
2018-06-05T14:58:55.593Z,24.80
2018-06-05T15:01:24.042Z,26.23
2018-06-05T15:03:52.465Z,24.95
2018-06-05T15:06:20.884Z,25.90
2018-06-05T15:08:49.290Z,26.97
2018-06-05T15:11:17.703Z,25.88
2018-06-05T15:13:46.527Z,27.62
2018-06-05T15:16:14.959Z,26.90
2018-06-05T15:18:43.377Z,28.07
2018-06-05T15:21:11.791Z,28.83
2018-06-05T15:23:40.206Z,27.17
2018-06-05T15:26:08.627Z,26.02
2018-06-05T15:28:37.050Z,27.95
2018-06-05T15:31:05.165Z,28.25
2018-06-05T15:33:33.594Z,27.45
2018-06-05T15:36:02.015Z,28.35
2018-06-05T15:38:30.459Z,27.10
2018-06-05T15:40:58.895Z,27.50
2018-06-05T15:43:27.306Z,26.57
2018-06-05T15:45:55.727Z,28.52
2018-06-05T15:48:24.149Z,27.30
2018-06-05T15:50:52.578Z,26.45
2018-06-05T15:53:21.014Z,26.65
2018-06-05T15:55:49.436Z,26.50
2018-06-05T15:58:17.863Z,25.92
2018-06-05T16:00:46.418Z,28.75
2018-06-05T16:03:14.845Z,27.25
2018-06-05T16:05:43.263Z,27.85
2018-06-05T16:08:11.694Z,28.65
2018-06-05T16:10:40.111Z,27.73
2018-06-05T16:13:08.527Z,28.73
2018-06-05T16:15:36.945Z,28.38
2018-06-05T16:18:05.442Z,28.23
2018-06-05T16:20:33.858Z,28.17
2018-06-05T16:23:02.335Z,26.37
2018-06-05T16:25:30.762Z,25.57
2018-06-05T16:27:59.175Z,28.20
2018-06-05T16:30:27.622Z,26.75
2018-06-05T16:32:56.042Z,28.55
2018-06-05T16:35:24.562Z,28.32
2018-06-05T16:37:52.967Z,27.65
2018-06-05T16:40:21.403Z,26.70
2018-06-05T16:42:49.860Z,26.17
2018-06-05T16:45:18.551Z,26.23
2018-06-05T16:47:47.002Z,26.23
2018-06-05T16:50:15.431Z,27.75
2018-06-05T16:52:43.858Z,25.95
2018-06-05T16:55:12.280Z,26.75
2018-06-05T16:57:40.690Z,26.02
2018-06-05T17:00:09.151Z,25.70
2018-06-05T17:02:37.567Z,25.82
2018-06-05T17:05:06.092Z,25.75
2018-06-05T17:07:34.502Z,24.72
2018-06-05T17:10:02.928Z,25.02
2018-06-05T17:12:31.339Z,23.50
2018-06-05T17:14:59.773Z,23.92
2018-06-05T17:17:28.204Z,22.52
2018-06-05T17:19:56.637Z,21.57
2018-06-05T17:22:25.065Z,21.62
2018-06-05T17:24:53.982Z,20.95
2018-06-05T17:27:22.464Z,21.48
2018-06-05T17:29:50.843Z,20.62
2018-06-05T17:32:19.292Z,19.92
2018-06-05T17:34:47.730Z,19.98
2018-06-05T17:37:16.138Z,19.20
2018-06-05T17:39:44.563Z,20.00
2018-06-05T17:42:12.707Z,18.70
2018-06-05T17:44:41.129Z,17.45
2018-06-05T17:47:09.571Z,18.87
2018-06-05T17:49:37.990Z,19.95
2018-06-05T17:52:06.091Z,19.42
2018-06-05T17:54:34.506Z,19.48
2018-06-05T17:57:02.927Z,18.98
2018-06-05T17:59:31.120Z,19.70
2018-06-05T18:01:59.542Z,17.73
2018-06-05T18:04:27.957Z,17.42
2018-06-05T18:06:56.387Z,18.57
2018-06-05T18:09:24.803Z,18.65
2018-06-05T18:11:53.224Z,18.37
2018-06-05T18:14:21.634Z,19.05
2018-06-05T18:16:50.056Z,19.10
2018-06-05T18:19:18.462Z,17.87
2018-06-05T18:21:46.886Z,18.60
2018-06-05T18:24:15.322Z,18.35
2018-06-05T18:26:43.769Z,17.05
2018-06-05T18:29:12.254Z,17.55
2018-06-05T18:31:41.190Z,17.50
2018-06-05T18:34:09.609Z,17.15
2018-06-05T18:36:38.046Z,17.48
2018-06-05T18:39:08.650Z,17.17
2018-06-05T18:41:36.777Z,17.37
2018-06-05T18:44:05.190Z,17.42
2018-06-05T18:46:33.624Z,17.42
2018-06-05T18:49:02.121Z,16.90
2018-06-05T18:51:30.538Z,18.05
2018-06-05T18:53:58.982Z,17.98
2018-06-05T18:56:27.398Z,17.73
2018-06-05T18:58:55.825Z,17.42
2018-06-05T19:01:24.235Z,17.75
2018-06-05T19:03:52.658Z,17.23
2018-06-05T19:06:21.102Z,18.27
2018-06-05T19:08:50.198Z,18.30
2018-06-05T19:11:18.630Z,18.05
2018-06-05T19:13:47.043Z,18.20
2018-06-05T19:16:15.482Z,18.48
2018-06-05T19:18:43.907Z,19.32
2018-06-05T19:21:12.336Z,19.10
2018-06-05T19:23:40.759Z,18.87
2018-06-05T19:26:09.165Z,19.07
2018-06-05T19:28:37.603Z,19.87
2018-06-05T19:31:06.043Z,18.90
2018-06-05T19:33:34.485Z,18.82
2018-06-05T19:36:02.890Z,19.37
2018-06-05T19:38:31.350Z,18.98
2018-06-05T19:40:59.788Z,19.07
2018-06-05T19:43:28.220Z,19.48
2018-06-05T19:47:25.843Z,20.23
2018-06-05T19:49:54.274Z,19.27
2018-06-05T19:52:22.693Z,19.75
2018-06-05T19:54:51.146Z,19.05
2018-06-05T19:57:19.586Z,20.82
2018-06-05T19:59:48.023Z,20.27
2018-06-05T20:02:16.427Z,20.08
2018-06-05T20:04:44.848Z,20.85
2018-06-05T20:07:13.651Z,21.17
2018-06-05T20:09:42.065Z,20.65
2018-06-05T20:12:10.487Z,21.68
2018-06-05T20:14:38.934Z,20.85
2018-06-05T20:17:07.350Z,20.40
2018-06-05T20:19:35.770Z,21.37
2018-06-05T20:22:04.186Z,22.42
2018-06-05T20:24:32.619Z,20.82
2018-06-05T20:27:01.033Z,21.97
2018-06-05T20:29:29.454Z,22.45
2018-06-05T20:31:57.894Z,21.57
2018-06-05T20:34:26.310Z,22.87
2018-06-05T20:36:54.738Z,22.95
2018-06-05T20:39:23.153Z,22.62
2018-06-05T20:41:51.582Z,21.70
2018-06-05T20:44:20.007Z,22.90
2018-06-05T20:46:48.407Z,22.30
2018-06-05T20:49:17.148Z,22.62
2018-06-05T20:51:46.890Z,24.30
2018-06-05T20:54:15.362Z,23.52
2018-06-05T20:56:43.785Z,23.05
2018-06-05T20:59:12.221Z,23.65
2018-06-05T21:01:40.631Z,22.98
2018-06-05T21:04:09.083Z,24.23
2018-06-05T21:06:37.503Z,23.57
2018-06-05T21:09:07.361Z,23.95
2018-06-05T21:11:35.858Z,24.35
2018-06-05T21:14:04.427Z,24.12
2018-06-05T21:16:32.842Z,25.00
2018-06-05T21:19:01.286Z,24.75
2018-06-05T21:21:29.699Z,24.65
2018-06-05T21:23:58.134Z,25.15
2018-06-05T21:26:26.542Z,25.30
2018-06-05T21:28:54.974Z,24.60
2018-06-05T21:31:23.399Z,26.20
2018-06-05T21:33:51.852Z,25.27
2018-06-05T21:36:21.456Z,26.17
2018-06-05T21:38:49.867Z,26.45
2018-06-05T21:41:18.418Z,26.05
2018-06-05T21:43:47.220Z,26.57
2018-06-05T21:46:16.008Z,25.20
2018-06-05T21:48:44.457Z,25.27
2018-06-05T21:51:12.909Z,25.95
2018-06-05T21:53:41.410Z,26.17
2018-06-05T21:56:10.133Z,26.33
2018-06-05T21:58:38.935Z,26.60
2018-06-05T22:01:07.359Z,26.12
2018-06-05T22:03:35.811Z,27.02
2018-06-05T22:06:04.230Z,27.13
2018-06-05T22:08:32.703Z,27.15
2018-06-05T22:11:01.114Z,26.30
2018-06-05T22:13:29.550Z,26.85
2018-06-05T22:15:57.987Z,27.22
2018-06-05T22:18:26.403Z,28.47
2018-06-05T22:20:54.834Z,27.85
2018-06-05T22:23:23.258Z,26.93
2018-06-05T22:25:51.730Z,27.32
2018-06-05T22:28:20.146Z,26.45
2018-06-05T22:30:48.589Z,25.57
2018-06-05T22:33:17.010Z,24.92
2018-06-05T22:35:45.447Z,24.57
2018-06-05T22:38:16.238Z,23.85
2018-06-05T22:40:44.674Z,26.68
2018-06-05T22:43:13.162Z,24.63
2018-06-05T22:45:41.586Z,26.12
2018-06-05T22:48:10.203Z,26.65
2018-06-05T22:50:38.670Z,28.17
2018-06-05T22:53:07.121Z,26.90
2018-06-05T22:55:35.554Z,27.00
2018-06-05T22:58:04.016Z,27.80
2018-06-05T23:00:33.443Z,26.75
2018-06-05T23:03:01.909Z,27.73
2018-06-05T23:05:30.370Z,27.35
2018-06-05T23:07:58.809Z,26.42
2018-06-05T23:10:27.236Z,26.93
2018-06-05T23:12:55.647Z,28.40
2018-06-05T23:15:24.067Z,28.05
2018-06-05T23:17:52.511Z,29.45
2018-06-05T23:20:20.930Z,28.23
2018-06-05T23:22:49.351Z,28.02
2018-06-05T23:25:17.777Z,27.95
2018-06-05T23:27:46.253Z,27.95
2018-06-05T23:30:14.663Z,28.42
2018-06-05T23:32:43.163Z,27.95
2018-06-05T23:35:11.576Z,27.55
2018-06-05T23:37:40.007Z,27.07
2018-06-05T23:40:08.479Z,25.30
2018-06-05T23:42:36.942Z,26.60
2018-06-05T23:45:05.434Z,25.85
2018-06-05T23:47:33.848Z,24.47
2018-06-05T23:50:04.901Z,25.05
2018-06-05T23:52:33.335Z,26.70
2018-06-05T23:55:01.742Z,25.52
2018-06-05T23:57:30.155Z,28.05
2018-06-05T23:59:58.583Z,27.82
